Vrsac, Serbia

12:34 AM CEST on August 31, 2016 (GMT +0200)
Vrsac | | Change Station

Elev 279 ft 45.15 °N, 21.31 °E | Updated 4 minutes ago

Clear
Clear
66 °F
Feels Like 66 °F
N
2
Wind Variable Wind from Variable

Today
High -- | Low -- °F
--% Chance of Precip.
Yesterday
High -- | Low -- °F
Precip. -- in
Pressure 30.12 in
Visibility -9999.0 miles
Clouds
Dew Point 63 °F
Humidity 88%
Rainfall 0.00 in
Snow Depth Not available.
5:55 AM 7:13 PM
Waning Crescent, 2% visible
METAR LYVR 302230Z VRB02KT CAVOK 19/17 Q1020 NOSIG
Pressure 30.12 in
Visibility -9999.0 miles
Clouds
Dew Point 63 °F
Humidity 88%
Rainfall 0.00 in
Snow Depth Not available.
5:55 AM 7:13 PM
Waning Crescent, 2% visible
METAR LYVR 302230Z VRB02KT CAVOK 19/17 Q1020 NOSIG

10-Day Weather Forecast

×

Almanac

Astronomy

Aug. 31, 2016 Rise Set
Actual Time
Civil Twilight
Nautical Twilight
Astronomical Twilight
Moon
Length of Visible Light
Length of Day
Tomorrow will be .
, % of the Moon is Illuminated

Today's Extremes

Country Highs Country Lows

Community

WunderPhotos

Upload Photos

1,935,914 photos uploaded!

WunderBlog® & News

Nearby

Air Quality

  Air Quality AQ Index Pollutant
Not available.

Snow Depth

Station Depth Elevation

Earthquake Activity

City Distance Mag. Time & Date
Minimum magnitude displayed is 2.5.

Coastal Water Temperatures

Place Temperature

Stations

Nearby Weather Stations

Station Location Temp. Windchill Dew Point Humidity Wind Precip. Elev Updated Type